Time;durP1;ratioP1;P1;durP2;ratioP2;P2;SDS_P1;SDS_P2;PMS_P1;PMS_P2;Temp;Humidity;BMP_temperature;BMP_pressure;BME280_temperature;BME280_humidity;BME280_pressure;Samples;Min_cycle;Max_cycle;Signal;HPM_P1;HPM_P2
2022/07/26 00:01:22;;;;;;;34.58;3.88;;;;;;;27.08;43.67;98833.53;5073531;28;20107;-47
2022/07/26 00:03:49;;;;;;;30.73;3.25;;;;;;;27.05;43.97;98839.50;5073442;28;20139;-47
2022/07/26 00:06:15;;;;;;;23.33;2.85;;;;;;;27.03;44.46;98844.41;5091559;28;20013;-47
2022/07/26 00:08:41;;;;;;;19.55;1.73;;;;;;;27.08;44.43;98840.78;5091870;28;20103;-47
2022/07/26 00:11:07;;;;;;;9.30;1.15;;;;;;;27.09;44.53;98834.31;5091534;28;20020;-47
2022/07/26 00:13:33;;;;;;;15.55;2.08;;;;;;;27.09;44.60;98845.88;5091666;28;20024;-47
2022/07/26 00:16:00;;;;;;;16.60;1.83;;;;;;;27.02;45.43;98853.56;5073304;28;20409;-47
2022/07/26 00:18:26;;;;;;;20.05;2.50;;;;;;;26.97;45.04;98855.63;5091471;28;20028;-46
2022/07/26 00:20:52;;;;;;;10.80;1.42;;;;;;;26.99;45.51;98856.91;5091688;28;20024;-47
2022/07/26 00:23:20;;;;;;;9.63;1.30;;;;;;;26.97;45.28;98858.31;5091515;28;20092;-48
2022/07/26 00:25:46;;;;;;;4.60;1.00;;;;;;;26.98;45.52;98855.28;5094931;28;20044;-47
2022/07/26 00:28:12;;;;;;;5.20;0.90;;;;;;;27.00;45.51;98857.69;5076982;28;20024;-47
2022/07/26 00:30:38;;;;;;;10.45;1.20;;;;;;;27.06;45.76;98854.59;5076887;28;20035;-48
2022/07/26 00:33:06;;;;;;;10.52;1.50;;;;;;;27.03;45.73;98849.78;5095072;28;20020;-47
2022/07/26 00:35:32;;;;;;;4.72;1.27;;;;;;;26.97;45.99;98859.09;5076856;28;20516;-47
2022/07/26 00:37:58;;;;;;;1.45;0.70;;;;;;;26.96;46.10;98857.50;5094961;28;20031;-47
2022/07/26 00:40:24;;;;;;;5.90;1.10;;;;;;;26.83;46.31;98864.53;5076797;28;20057;-47
2022/07/26 00:42:50;;;;;;;10.15;1.10;;;;;;;26.69;46.89;98861.06;5094958;28;20024;-47
2022/07/26 00:45:16;;;;;;;9.68;1.77;;;;;;;26.61;47.35;98859.88;5094838;28;20408;-47
2022/07/26 00:47:42;;;;;;;11.93;1.20;;;;;;;26.68;47.18;98864.84;5076694;28;20030;-46
2022/07/26 00:50:11;;;;;;;8.65;1.13;;;;;;;26.73;47.13;98859.38;5094779;28;20032;-47
2022/07/26 00:52:36;;;;;;;13.95;1.33;;;;;;;26.73;46.74;98864.75;5094568;28;20012;-47
2022/07/26 00:55:05;;;;;;;25.45;1.85;;;;;;;26.69;47.37;98856.47;5076513;28;20107;-46
2022/07/26 00:57:31;;;;;;;24.48;2.08;;;;;;;26.74;46.88;98850.16;5094891;28;20026;-47
2022/07/26 00:59:59;;;;;;;12.90;1.25;;;;;;;26.72;47.03;98860.44;5094548;28;20103;-47
2022/07/26 01:02:25;;;;;;;17.73;3.10;;;;;;;26.59;47.62;98850.53;5094516;28;20448;-47
2022/07/26 01:04:51;;;;;;;18.02;1.70;;;;;;;26.61;47.50;98864.47;5076355;28;20020;-47
2022/07/26 01:07:18;;;;;;;19.00;1.85;;;;;;;26.66;47.33;98856.28;5094482;28;20470;-47
2022/07/26 01:09:43;;;;;;;16.60;1.60;;;;;;;26.74;48.07;98850.16;5094415;28;20043;-48
2022/07/26 01:12:09;;;;;;;9.38;1.17;;;;;;;27.19;47.10;98847.53;5076160;28;20119;-47
2022/07/26 01:14:35;;;;;;;5.75;1.00;;;;;;;27.42;46.17;98837.56;5076306;28;20052;-48
2022/07/26 01:17:01;;;;;;;5.03;1.00;;;;;;;27.21;46.21;98850.72;5076084;28;20035;-48
2022/07/26 01:19:27;;;;;;;15.25;1.65;;;;;;;26.92;47.40;98845.72;5094279;28;20028;-47
2022/07/26 01:21:53;;;;;;;21.05;4.53;;;;;;;27.24;46.96;98844.75;5094183;28;20343;-48
2022/07/26 01:24:18;;;;;;;13.95;1.90;;;;;;;27.43;46.70;98844.56;5093976;28;20031;-47
2022/07/26 01:26:44;;;;;;;6.55;1.05;;;;;;;27.82;45.71;98842.22;5094082;28;20017;-47
2022/07/26 01:29:11;;;;;;;20.73;2.58;;;;;;;28.12;45.94;98847.94;5094113;28;20465;-47
2022/07/26 01:31:36;;;;;;;10.07;1.67;;;;;;;28.41;44.42;98844.66;5094267;28;20016;-47
2022/07/26 01:34:02;;;;;;;9.32;1.33;;;;;;;28.35;43.71;98846.69;5093723;28;20378;-48
2022/07/26 01:36:28;;;;;;;19.48;1.92;;;;;;;27.95;44.37;98843.25;5093635;28;20027;-48
2022/07/26 01:38:54;;;;;;;13.55;1.60;;;;;;;27.66;44.94;98848.00;5075717;28;20105;-47
2022/07/26 01:41:19;;;;;;;8.52;1.27;;;;;;;27.51;45.19;98848.41;5093783;28;20126;-49
2022/07/26 01:43:48;;;;;;;5.40;1.42;;;;;;;27.42;45.64;98844.84;5075647;28;20024;-50
2022/07/26 01:46:14;;;;;;;12.00;1.83;;;;;;;27.39;45.46;98854.38;5093762;28;20024;-49
2022/07/26 01:48:39;;;;;;;8.90;1.20;;;;;;;27.24;46.24;98849.34;5075582;28;20023;-49
2022/07/26 01:51:05;;;;;;;14.25;2.03;;;;;;;27.00;46.55;98852.28;5093645;28;20389;-49
2022/07/26 01:53:31;;;;;;;12.52;1.25;;;;;;;26.86;47.00;98847.78;5093477;28;20031;-48
2022/07/26 01:55:57;;;;;;;4.03;1.05;;;;;;;26.72;46.98;98848.88;5093542;28;20435;-49
2022/07/26 01:58:23;;;;;;;9.85;1.40;;;;;;;26.70;47.52;98847.31;5093541;28;20111;-49
2022/07/26 02:00:49;;;;;;;12.27;2.00;;;;;;;26.81;47.86;98844.38;5093583;28;20050;-49
2022/07/26 02:03:15;;;;;;;9.23;1.10;;;;;;;27.18;47.15;98850.53;5075197;28;20549;-48
2022/07/26 02:05:40;;;;;;;3.53;0.80;;;;;;;27.24;45.95;98844.75;5075138;28;20408;-49
2022/07/26 02:08:06;;;;;;;14.65;1.20;;;;;;;27.09;46.44;98845.09;5093346;28;20451;-49
2022/07/26 02:13:16;;;;;;;7.88;1.13;;;;;;;26.75;47.28;98845.59;5093283;28;20035;-49
2022/07/26 02:15:42;;;;;;;18.00;2.15;;;;;;;26.55;48.18;98858.38;5093154;28;20490;-49
2022/07/26 02:18:08;;;;;;;8.70;1.02;;;;;;;26.60;47.67;98852.09;5093116;28;20136;-48
2022/07/26 02:20:34;;;;;;;5.03;0.93;;;;;;;26.61;47.92;98841.03;5093050;28;20481;-48
2022/07/26 02:23:00;;;;;;;3.67;1.10;;;;;;;26.61;47.56;98846.41;5093323;28;20074;-49
2022/07/26 02:25:26;;;;;;;5.00;0.90;;;;;;;26.64;47.98;98845.84;5074551;28;20065;-49
2022/07/26 02:27:52;;;;;;;9.77;1.15;;;;;;;26.57;47.77;98840.03;5092938;28;20100;-48
2022/07/26 02:30:18;;;;;;;8.55;1.05;;;;;;;26.40;48.32;98842.53;5092861;28;20501;-49
2022/07/26 02:32:43;;;;;;;6.10;1.40;;;;;;;26.27;48.51;98839.56;5092759;28;20097;-49
2022/07/26 02:35:10;;;;;;;10.48;1.20;;;;;;;26.21;48.81;98837.28;5092768;28;20023;-49
2022/07/26 02:37:36;;;;;;;7.43;1.23;;;;;;;26.19;48.86;98832.19;5092761;28;20016;-49
2022/07/26 02:40:02;;;;;;;6.35;1.02;;;;;;;26.13;48.75;98836.06;5092694;28;20035;-48
2022/07/26 02:42:28;;;;;;;10.13;1.40;;;;;;;26.01;48.92;98836.56;5092644;28;20024;-49
2022/07/26 02:44:54;;;;;;;2.33;1.08;;;;;;;26.00;49.24;98831.50;5092668;28;20157;-48
2022/07/26 02:47:19;;;;;;;7.10;1.05;;;;;;;26.10;48.79;98832.09;5091755;28;20480;-48
2022/07/26 02:49:45;;;;;;;6.43;1.00;;;;;;;26.07;48.66;98831.91;5092536;28;20024;-49
2022/07/26 02:52:11;;;;;;;3.75;1.10;;;;;;;26.07;48.87;98831.91;5092497;28;20099;-49
2022/07/26 02:54:37;;;;;;;5.95;1.02;;;;;;;26.09;48.25;98829.69;5074073;28;20122;-48
2022/07/26 02:57:03;;;;;;;9.70;1.40;;;;;;;26.07;48.28;98826.53;5092465;28;20020;-49
2022/07/26 02:59:29;;;;;;;11.05;2.05;;;;;;;26.00;48.48;98826.94;5092343;28;20116;-49
2022/07/26 03:01:54;;;;;;;13.40;1.90;;;;;;;25.97;48.39;98822.13;5092328;28;20027;-48
2022/07/26 03:04:21;;;;;;;9.32;1.40;;;;;;;26.03;48.52;98822.84;5092293;28;20031;-49
2022/07/26 03:06:47;;;;;;;9.15;2.10;;;;;;;26.10;48.36;98828.63;5092254;28;20016;-48
2022/07/26 03:09:12;;;;;;;4.50;1.10;;;;;;;26.16;47.97;98824.72;5074059;28;20531;-49
2022/07/26 03:11:38;;;;;;;4.50;1.15;;;;;;;26.19;47.60;98828.72;5092135;28;20031;-49
2022/07/26 03:14:04;;;;;;;4.93;1.10;;;;;;;26.04;47.68;98825.22;5092167;28;20055;-49
2022/07/26 03:16:30;;;;;;;9.50;1.50;;;;;;;25.87;48.12;98817.72;5092084;28;20064;-48
2022/07/26 03:18:56;;;;;;;4.60;1.23;;;;;;;25.74;48.46;98826.56;5092044;28;20083;-48
2022/07/26 03:21:22;;;;;;;7.78;1.50;;;;;;;25.69;48.69;98824.75;5073883;28;20036;-49
2022/07/26 03:23:47;;;;;;;59.50;4.65;;;;;;;25.65;49.05;98828.34;5073857;28;20409;-49
2022/07/26 03:26:14;;;;;;;11.93;1.33;;;;;;;25.71;48.94;98817.19;5091823;28;20047;-49
2022/07/26 03:28:41;;;;;;;6.47;1.50;;;;;;;25.66;48.38;98820.00;5092021;28;20024;-49
2022/07/26 03:31:07;;;;;;;12.07;1.63;;;;;;;25.58;48.43;98823.34;5091990;28;20051;-49
2022/07/26 03:33:33;;;;;;;13.85;1.98;;;;;;;25.47;48.64;98813.88;5091831;28;20020;-47
2022/07/26 03:35:58;;;;;;;12.70;2.70;;;;;;;25.38;48.94;98821.81;5091913;28;20035;-47
2022/07/26 03:38:24;;;;;;;15.05;2.00;;;;;;;25.39;49.11;98820.72;5073664;28;20022;-46
2022/07/26 03:40:50;;;;;;;17.77;2.15;;;;;;;25.49;48.68;98825.13;5091775;28;20032;-47
2022/07/26 03:43:16;;;;;;;17.27;2.58;;;;;;;25.39;48.65;98823.41;5091854;28;20024;-47
2022/07/26 03:45:41;;;;;;;15.98;2.03;;;;;;;25.28;48.67;98820.09;5091976;28;20047;-47
2022/07/26 03:48:07;;;;;;;21.02;3.10;;;;;;;25.22;49.09;98829.34;5073651;28;20190;-47
2022/07/26 03:50:33;;;;;;;13.35;2.33;;;;;;;25.24;49.16;98832.53;5091785;28;20056;-47
2022/07/26 03:52:58;;;;;;;13.60;2.25;;;;;;;25.19;49.23;98824.50;5091690;28;20423;-46
2022/07/26 03:58:08;;;;;;;10.32;2.65;;;;;;;25.06;49.72;98830.63;5093268;28;20417;-48
2022/07/26 04:00:34;;;;;;;25.08;2.90;;;;;;;25.08;49.87;98825.78;5077698;28;20483;-45
2022/07/26 04:02:59;;;;;;;34.47;3.10;;;;;;;25.13;49.95;98825.69;5077765;28;20099;-47
2022/07/26 04:05:25;;;;;;;19.45;2.70;;;;;;;25.23;49.84;98833.63;5060832;28;20020;-47
2022/07/26 04:07:51;;;;;;;7.53;2.10;;;;;;;25.26;49.42;98827.66;5095984;28;20032;-47
2022/07/26 04:10:17;;;;;;;7.40;2.10;;;;;;;25.21;49.54;98830.44;5077444;28;20052;-47
2022/07/26 04:12:42;;;;;;;9.80;1.77;;;;;;;25.09;49.95;98830.84;5095407;28;20114;-47
2022/07/26 04:15:09;;;;;;;9.15;2.40;;;;;;;25.10;50.01;98826.28;5095525;28;20061;-48
2022/07/26 04:17:42;;;;;;;11.90;2.35;;;;;;;25.15;50.09;98833.44;5095539;28;20438;-46
2022/07/26 04:20:10;;;;;;;11.93;2.40;;;;;;;25.15;49.72;98822.69;5095432;28;20169;-46
2022/07/26 04:22:37;;;;;;;16.35;2.85;;;;;;;25.09;49.76;98822.81;5095641;28;20057;-47
2022/07/26 04:25:05;;;;;;;11.18;2.05;;;;;;;24.95;50.01;98826.50;5067169;28;20056;-47
2022/07/26 04:27:31;;;;;;;11.73;2.60;;;;;;;24.92;50.22;98817.94;5073370;28;20025;-47
2022/07/26 04:29:57;;;;;;;5.63;1.48;;;;;;;24.98;49.83;98812.50;5056970;28;20095;-47
2022/07/26 04:32:23;;;;;;;15.73;2.05;;;;;;;24.96;50.10;98818.16;5075051;28;20021;-47
2022/07/26 04:34:48;;;;;;;8.43;2.40;;;;;;;25.03;49.94;98812.41;5056782;28;20036;-47
2022/07/26 04:37:14;;;;;;;32.75;4.53;;;;;;;25.07;49.96;98819.63;5074753;28;20032;-48
2022/07/26 04:39:40;;;;;;;16.98;2.65;;;;;;;25.06;49.65;98809.94;5074711;28;20563;-47
2022/07/26 04:42:06;;;;;;;10.18;2.40;;;;;;;25.11;49.46;98807.19;5074650;28;20028;-47
2022/07/26 04:44:32;;;;;;;9.98;2.17;;;;;;;25.13;49.56;98806.88;5074600;28;20032;-48
2022/07/26 04:46:57;;;;;;;7.18;1.80;;;;;;;25.19;49.41;98808.38;5074671;28;20478;-47
2022/07/26 04:49:23;;;;;;;12.15;2.00;;;;;;;25.20;49.33;98807.31;5056615;28;20058;-47
2022/07/26 04:51:48;;;;;;;21.52;3.42;;;;;;;25.19;49.36;98810.28;5056444;28;20093;-47
2022/07/26 04:54:19;;;;;;;17.10;2.95;;;;;;;25.20;49.19;98810.00;5074456;28;20498;-46
2022/07/26 04:56:48;;;;;;;10.38;2.22;;;;;;;25.21;48.96;98805.41;5074732;28;20417;-47
2022/07/26 04:59:16;;;;;;;13.48;2.55;;;;;;;25.17;49.14;98802.50;5074443;28;20020;-47
2022/07/26 05:01:42;;;;;;;11.77;2.08;;;;;;;25.10;49.11;98802.09;5056664;28;20032;-47
2022/07/26 05:04:07;;;;;;;25.38;3.70;;;;;;;25.05;49.37;98816.41;5074340;28;20144;-46
2022/07/26 05:06:33;;;;;;;8.30;2.33;;;;;;;25.11;49.32;98803.69;5056288;28;20048;-47
2022/07/26 05:08:59;;;;;;;22.63;3.55;;;;;;;25.07;49.43;98810.72;5055816;28;20028;-47
2022/07/26 05:11:25;;;;;;;14.43;2.63;;;;;;;25.10;49.62;98805.59;5073771;28;20016;-47
2022/07/26 05:13:51;;;;;;;13.40;2.78;;;;;;;25.10;49.17;98812.84;5056144;28;20024;-47
2022/07/26 05:16:16;;;;;;;23.75;3.72;;;;;;;25.11;49.08;98807.19;5074107;28;20323;-47
2022/07/26 05:18:42;;;;;;;12.85;2.85;;;;;;;25.18;49.09;98800.66;5056029;28;20429;-47
2022/07/26 05:21:08;;;;;;;31.85;4.95;;;;;;;25.17;49.38;98804.41;5074026;28;20025;-47
2022/07/26 05:23:33;;;;;;;7.18;2.03;;;;;;;25.22;49.11;98802.47;5073994;28;20525;-47
2022/07/26 05:25:59;;;;;;;18.73;2.17;;;;;;;25.25;49.08;98801.91;5055625;28;20090;-47
2022/07/26 05:28:25;;;;;;;14.35;3.65;;;;;;;25.28;48.85;98795.91;5073872;28;20528;-47
2022/07/26 05:30:51;;;;;;;10.27;2.25;;;;;;;25.42;48.73;98804.00;5073831;28;20056;-47
2022/07/26 05:33:16;;;;;;;12.07;2.30;;;;;;;25.63;48.22;98801.75;5055721;28;20490;-49
2022/07/26 05:35:42;;;;;;;7.25;1.63;;;;;;;25.85;47.80;98798.38;5073776;28;20031;-49
2022/07/26 05:38:08;;;;;;;12.18;2.65;;;;;;;26.12;47.07;98794.16;5039152;28;20031;-48
2022/07/26 05:40:34;;;;;;;10.93;2.72;;;;;;;26.35;46.53;98796.91;5073657;28;20398;-49
2022/07/26 05:42:59;;;;;;;39.45;4.65;;;;;;;26.58;46.03;98793.19;5073587;28;20108;-48
2022/07/26 05:45:25;;;;;;;24.73;3.08;;;;;;;26.75;45.66;98791.75;5073767;28;20025;-49
2022/07/26 05:47:52;;;;;;;14.35;2.47;;;;;;;27.14;44.98;98785.69;5073590;28;20496;-49
2022/07/26 05:50:18;;;;;;;23.77;2.85;;;;;;;27.52;44.39;98787.19;5055479;28;20062;-49
2022/07/26 05:52:44;;;;;;;21.77;2.75;;;;;;;27.89;43.05;98784.06;5055380;28;20405;-48
2022/07/26 05:55:10;;;;;;;36.17;4.10;;;;;;;27.93;43.15;98781.53;5073367;28;20502;-48
2022/07/26 05:57:40;;;;;;;28.13;3.53;;;;;;;28.68;42.04;98789.59;5073395;28;20020;-48
2022/07/26 06:00:08;;;;;;;24.75;3.88;;;;;;;29.33;40.45;98787.78;5073268;28;20024;-50
2022/07/26 06:02:34;;;;;;;19.60;3.00;;;;;;;29.34;40.13;98785.88;5073239;28;20028;-49
2022/07/26 06:05:00;;;;;;;22.05;3.00;;;;;;;28.95;40.61;98788.47;5055185;28;20021;-48
2022/07/26 06:07:26;;;;;;;15.57;2.17;;;;;;;28.89;40.20;98792.44;5073104;28;20390;-48
2022/07/26 06:09:51;;;;;;;14.43;2.50;;;;;;;28.91;40.19;98794.84;5073007;28;20120;-48
2022/07/26 06:12:17;;;;;;;18.75;3.63;;;;;;;29.41;39.69;98795.09;5055001;28;20024;-47
2022/07/26 06:14:43;;;;;;;23.70;3.22;;;;;;;29.98;38.26;98798.56;5054903;28;20035;-47
2022/07/26 06:17:09;;;;;;;17.88;2.30;;;;;;;30.04;37.73;98792.66;5072934;28;20535;-47
2022/07/26 06:19:34;;;;;;;13.75;2.72;;;;;;;30.19;37.35;98798.59;5072866;28;20028;-48
2022/07/26 06:22:00;;;;;;;6.43;1.65;;;;;;;31.28;35.23;98787.88;5072674;28;20035;-48
2022/07/26 06:24:26;;;;;;;9.65;1.80;;;;;;;32.66;33.01;98786.41;5072483;28;20032;-47
2022/07/26 06:26:54;;;;;;;8.23;1.90;;;;;;;33.50;31.46;98791.00;5054794;28;20039;-48
2022/07/26 06:29:20;;;;;;;22.42;2.50;;;;;;;33.38;31.34;98800.03;5072627;28;20024;-47
2022/07/26 06:31:47;;;;;;;19.02;2.55;;;;;;;33.97;30.06;98790.22;5072692;28;20525;-47
2022/07/26 06:34:13;;;;;;;27.02;3.40;;;;;;;34.83;29.04;98794.00;5054631;28;20046;-47
2022/07/26 06:36:39;;;;;;;31.10;3.22;;;;;;;35.56;27.86;98787.56;5072816;28;20024;-47
2022/07/26 06:39:05;;;;;;;21.40;2.88;;;;;;;36.14;26.73;98785.69;5072527;28;20099;-48
2022/07/26 06:41:31;;;;;;;21.65;3.78;;;;;;;36.33;26.58;98793.03;5072449;28;20024;-46
2022/07/26 06:43:56;;;;;;;50.90;4.20;;;;;;;36.80;26.32;98791.66;5054419;28;20032;-47
2022/07/26 06:46:25;;;;;;;30.02;4.20;;;;;;;37.02;25.76;98787.22;5054462;28;20021;-47
2022/07/26 06:48:51;;;;;;;29.10;3.60;;;;;;;37.56;25.09;98785.78;5072374;28;20469;-47
2022/07/26 06:51:17;;;;;;;21.58;3.10;;;;;;;37.57;24.65;98781.88;5072263;28;20438;-47
2022/07/26 06:53:42;;;;;;;23.77;3.42;;;;;;;37.52;24.96;98784.97;5072152;28;20086;-47
2022/07/26 06:56:08;;;;;;;25.15;3.70;;;;;;;36.90;25.44;98779.28;5072675;28;20020;-47
2022/07/26 06:58:34;;;;;;;29.45;3.67;;;;;;;35.11;27.02;98791.81;5054236;28;20482;-47
2022/07/26 07:01:00;;;;;;;33.83;4.63;;;;;;;33.23;29.58;98783.34;5054168;28;20485;-48
2022/07/26 07:03:25;;;;;;;35.28;4.18;;;;;;;32.18;31.35;98789.66;5072074;28;20036;-47
2022/07/26 07:05:51;;;;;;;23.55;3.70;;;;;;;31.47;32.84;98790.09;5072028;28;20055;-47
2022/07/26 07:08:17;;;;;;;27.38;4.57;;;;;;;31.45;32.80;98783.09;5072023;28;20401;-48
2022/07/26 07:10:43;;;;;;;29.48;3.38;;;;;;;32.00;32.25;98783.69;5071910;28;20024;-47
2022/07/26 07:13:08;;;;;;;26.13;3.80;;;;;;;31.98;32.17;98788.63;5072115;28;20035;-47
2022/07/26 07:15:34;;;;;;;15.73;2.45;;;;;;;32.68;31.00;98782.22;5071927;28;20033;-46
2022/07/26 07:18:00;;;;;;;23.63;3.30;;;;;;;32.41;31.39;98776.38;5071950;28;20060;-47
2022/07/26 07:20:27;;;;;;;20.48;3.20;;;;;;;33.32;30.13;98775.00;5071861;28;20108;-47
2022/07/26 07:22:53;;;;;;;26.95;2.97;;;;;;;33.63;29.73;98778.91;5071821;28;20486;-47
2022/07/26 07:25:19;;;;;;;31.70;3.85;;;;;;;33.93;29.61;98773.00;5071596;28;20051;-48
2022/07/26 07:27:44;;;;;;;13.05;3.05;;;;;;;33.90;29.58;98776.41;5053802;28;20111;-49
2022/07/26 07:30:11;;;;;;;8.23;1.90;;;;;;;33.50;30.29;98775.44;5071762;28;20051;-48
2022/07/26 07:32:37;;;;;;;21.35;2.53;;;;;;;34.54;29.48;98766.94;5071369;28;20524;-48
2022/07/26 07:35:03;;;;;;;14.15;2.75;;;;;;;35.86;27.42;98765.03;5071713;28;20047;-48
2022/07/26 07:37:29;;;;;;;11.40;2.55;;;;;;;36.47;26.43;98759.63;5071740;28;20100;-49
2022/07/26 07:39:57;;;;;;;10.30;2.15;;;;;;;35.91;26.67;98770.16;5053657;28;20119;-49
2022/07/26 07:42:23;;;;;;;9.95;2.00;;;;;;;35.13;27.64;98764.94;5071614;28;20017;-47
2022/07/26 07:44:49;;;;;;;14.45;3.58;;;;;;;34.91;28.00;98769.22;5053594;28;20490;-47
2022/07/26 07:47:15;;;;;;;13.85;2.42;;;;;;;35.04;28.10;98767.16;5071518;28;20458;-47
2022/07/26 07:49:40;;;;;;;12.93;2.00;;;;;;;35.50;27.22;98755.47;5037081;28;20028;-47
2022/07/26 07:52:06;;;;;;;9.23;2.03;;;;;;;35.74;26.81;98759.78;5071514;28;20029;-48
2022/07/26 07:54:32;;;;;;;20.10;2.75;;;;;;;36.28;26.50;98753.16;5071521;28;20494;-48
2022/07/26 07:56:57;;;;;;;12.75;2.83;;;;;;;36.85;25.42;98757.75;5071546;28;20147;-47
2022/07/26 07:59:23;;;;;;;9.07;1.80;;;;;;;37.36;24.89;98746.09;5071435;28;20051;-49
2022/07/26 08:01:49;;;;;;;13.88;2.50;;;;;;;37.60;24.96;98750.22;5071478;28;20028;-48
2022/07/26 08:04:15;;;;;;;15.98;2.53;;;;;;;37.68;24.40;98754.59;5071485;28;20031;-48
2022/07/26 08:06:41;;;;;;;14.82;2.67;;;;;;;37.19;24.92;98747.53;5071414;28;20501;-49
2022/07/26 08:09:07;;;;;;;13.48;2.80;;;;;;;36.74;25.66;98761.13;5071431;28;20540;-49
2022/07/26 08:11:33;;;;;;;23.15;2.78;;;;;;;36.50;25.84;98759.69;5071712;28;20029;-48
2022/07/26 08:13:58;;;;;;;15.13;2.75;;;;;;;36.94;25.09;98750.00;5071273;28;20029;-49
2022/07/26 08:16:24;;;;;;;16.23;2.90;;;;;;;37.74;24.53;98753.06;5071327;28;20346;-48
2022/07/26 08:18:50;;;;;;;12.98;2.53;;;;;;;38.45;23.41;98754.63;5071338;28;20032;-49
2022/07/26 08:21:15;;;;;;;14.45;2.40;;;;;;;39.22;22.49;98746.25;5071218;28;20483;-49
2022/07/26 08:23:44;;;;;;;18.73;2.42;;;;;;;39.03;22.58;98757.59;5071261;28;20542;-50
2022/07/26 08:26:09;;;;;;;26.23;3.40;;;;;;;38.72;23.19;98755.16;5071009;28;20524;-49
2022/07/26 08:28:35;;;;;;;9.38;1.80;;;;;;;38.85;23.23;98758.31;5071202;28;20017;-49
2022/07/26 08:31:01;;;;;;;22.02;2.92;;;;;;;39.80;21.97;98754.44;5071134;28;20017;-48
2022/07/26 08:33:26;;;;;;;38.08;4.00;;;;;;;40.27;21.56;98750.41;5071057;28;20103;-49
2022/07/26 08:35:52;;;;;;;31.88;3.65;;;;;;;41.03;20.81;98739.84;5053078;28;20440;-50
2022/07/26 08:38:18;;;;;;;32.95;29.50;;;;;;;41.62;20.14;98738.22;5071361;28;20021;-49
2022/07/26 08:40:43;;;;;;;11.88;4.18;;;;;;;40.18;20.82;98744.56;5071134;28;20529;-50
2022/07/26 08:43:10;;;;;;;10.60;2.80;;;;;;;38.24;23.33;98755.34;5071299;28;20108;-49
2022/07/26 08:45:36;;;;;;;11.32;1.98;;;;;;;38.72;22.97;98746.91;5073056;28;20505;-50
2022/07/26 08:48:02;;;;;;;10.30;2.25;;;;;;;40.00;21.32;98735.59;5074697;28;20059;-49
2022/07/26 08:50:28;;;;;;;11.73;5.30;;;;;;;40.91;19.91;98743.03;5056652;28;20474;-48
2022/07/26 08:53:00;;;;;;;10.45;2.20;;;;;;;39.42;21.39;98741.16;5074551;28;20039;-48
2022/07/26 08:55:26;;;;;;;12.65;2.15;;;;;;;39.40;21.85;98751.75;5074667;28;20033;-47
2022/07/26 08:57:52;;;;;;;12.82;2.10;;;;;;;39.20;21.57;98751.34;5074582;28;20081;-47
2022/07/26 09:00:29;;;;;;;15.73;2.30;;;;;;;38.48;22.67;98745.66;5074522;28;20059;-47
2022/07/26 09:02:57;;;;;;;23.73;3.30;;;;;;;38.34;22.64;98748.34;5074514;28;20020;-48
2022/07/26 09:05:34;;;;;;;16.10;2.40;;;;;;;38.94;22.57;98733.25;5074291;28;20071;-47
2022/07/26 09:08:24;;;;;;;6.93;1.60;;;;;;;40.24;21.27;98737.47;5074382;28;20029;-47
2022/07/26 09:10:50;;;;;;;19.83;2.90;;;;;;;39.88;21.27;98728.56;5074346;28;20063;-48
2022/07/26 09:13:15;;;;;;;8.45;1.70;;;;;;;39.64;20.81;98727.41;5074166;28;20048;-47
2022/07/26 09:15:41;;;;;;;47.22;5.65;;;;;;;40.62;21.34;98734.16;5074157;28;20190;-48
2022/07/26 09:18:27;;;;;;;8.20;1.63;;;;;;;40.34;20.41;98731.16;5074340;28;20028;-48
2022/07/26 09:20:53;;;;;;;7.00;1.92;;;;;;;38.46;22.12;98737.03;5074180;28;20032;-48
2022/07/26 09:23:19;;;;;;;10.07;2.05;;;;;;;39.16;21.44;98736.84;5073904;28;20028;-47
2022/07/26 09:25:45;;;;;;;11.68;1.90;;;;;;;39.91;20.08;98727.78;5073694;28;20537;-48
2022/07/26 09:28:25;;;;;;;10.70;1.98;;;;;;;40.24;20.27;98729.22;5074138;28;20432;-48
2022/07/26 09:30:59;;;;;;;14.38;2.25;;;;;;;40.70;19.82;98717.22;5073910;28;20104;-48
2022/07/26 09:33:25;;;;;;;8.27;1.80;;;;;;;41.55;19.36;98725.25;5073856;28;20074;-47
2022/07/26 09:36:05;;;;;;;9.98;2.33;;;;;;;42.12;18.66;98721.16;5073768;28;20584;-48
2022/07/26 09:38:45;;;;;;;16.85;2.33;;;;;;;41.75;18.65;98725.47;5073684;28;20397;-48
2022/07/26 09:41:33;;;;;;;6.93;1.65;;;;;;;41.74;18.24;98725.88;5073616;28;20506;-48
2022/07/26 09:44:04;;;;;;;6.80;1.60;;;;;;;41.58;18.32;98723.66;5073696;28;20422;-47
2022/07/26 09:46:34;;;;;;;7.00;1.75;;;;;;;41.62;18.20;98727.19;5073520;28;20025;-48
2022/07/26 09:49:16;;;;;;;14.75;2.45;;;;;;;42.01;18.24;98720.47;5073453;28;20024;-48
2022/07/26 09:51:45;;;;;;;7.72;2.03;;;;;;;42.03;18.12;98729.91;5073528;28;20025;-48
2022/07/26 09:54:17;;;;;;;12.73;2.00;;;;;;;40.97;18.20;98732.41;5073323;28;20456;-48
2022/07/26 09:56:51;;;;;;;10.52;2.20;;;;;;;40.22;19.36;98722.53;5055096;28;20056;-50
2022/07/26 09:59:22;;;;;;;6.38;1.75;;;;;;;40.69;18.96;98720.34;5073327;28;20031;-49
2022/07/26 10:01:49;;;;;;;15.63;2.30;;;;;;;40.74;19.22;98717.22;5073243;28;20021;-47
2022/07/26 10:04:16;;;;;;;12.10;1.95;;;;;;;41.03;18.89;98715.06;5073214;28;20031;-48
2022/07/26 10:06:42;;;;;;;9.95;2.17;;;;;;;41.69;18.09;98713.31;5073172;28;20024;-50
2022/07/26 10:09:09;;;;;;;8.13;2.20;;;;;;;42.59;17.67;98704.00;5073151;28;20024;-48
2022/07/26 10:11:49;;;;;;;3.75;1.38;;;;;;;42.24;16.65;98709.56;5055373;28;20021;-47
2022/07/26 10:14:35;;;;;;;7.03;1.70;;;;;;;40.78;18.53;98711.69;5073020;28;20052;-48
2022/07/26 10:17:20;;;;;;;9.73;1.90;;;;;;;40.52;19.14;98711.03;5072930;28;20027;-49
2022/07/26 10:19:45;;;;;;;3.92;1.85;;;;;;;41.07;18.51;98713.06;5072972;28;20050;-48
2022/07/26 10:22:40;;;;;;;9.25;1.73;;;;;;;41.36;18.36;98698.28;5072813;28;20367;-47
2022/07/26 10:25:29;;;;;;;20.13;5.70;;;;;;;41.38;18.46;98704.16;5070139;28;20055;-50
2022/07/26 10:27:59;;;;;;;23.48;13.57;;;;;;;41.28;18.67;98706.59;5062065;28;20625;-51
2022/07/26 10:30:27;;;;;;;32.40;24.23;;;;;;;41.67;17.81;98696.41;5054718;28;20035;-50
2022/07/26 10:32:55;;;;;;;40.50;31.52;;;;;;;41.56;17.63;98695.72;5072542;28;20025;-49
2022/07/26 10:35:42;;;;;;;45.70;29.65;;;;;;;40.58;18.76;98690.16;5054572;28;20450;-50
2022/07/26 10:38:23;;;;;;;52.47;33.97;;;;;;;40.42;20.01;98698.13;5072498;28;20063;-50
2022/07/26 10:40:59;;;;;;;28.15;14.80;;;;;;;41.16;18.49;98690.56;5072485;28;20123;-50
2022/07/26 10:43:26;;;;;;;33.45;16.38;;;;;;;40.91;18.80;98683.28;5072485;28;20021;-49
2022/07/26 10:46:30;;;;;;;29.35;13.52;;;;;;;40.75;19.76;98680.28;5072357;28;20024;-50
2022/07/26 10:48:57;;;;;;;25.65;11.90;;;;;;;40.68;20.33;98683.81;4990899;28;20385;-50
2022/07/26 10:51:28;;;;;;;20.58;8.50;;;;;;;40.71;19.64;98679.47;5057923;28;20037;-49
2022/07/26 10:54:08;;;;;;;19.35;9.05;;;;;;;39.11;21.33;98683.09;5072206;28;20060;-50
2022/07/26 10:56:34;;;;;;;15.55;6.00;;;;;;;38.45;21.69;98694.31;5072277;28;20056;-50
2022/07/26 10:59:01;;;;;;;14.98;7.53;;;;;;;38.56;21.63;98686.16;5072157;28;20040;-51
2022/07/26 11:01:41;;;;;;;9.57;2.78;;;;;;;38.06;21.75;98694.19;5054152;28;20036;-49
2022/07/26 11:04:20;;;;;;;9.27;3.13;;;;;;;38.48;21.53;98681.78;5072470;28;20451;-48
2022/07/26 11:06:47;;;;;;;7.22;2.60;;;;;;;39.17;20.39;98660.75;5071866;28;20035;-50
2022/07/26 11:09:12;;;;;;;20.95;4.30;;;;;;;39.25;20.00;98673.28;5071882;28;20074;-49
2022/07/26 11:11:38;;;;;;;18.38;3.58;;;;;;;39.51;19.70;98664.63;5072003;28;20068;-48
2022/07/26 11:14:10;;;;;;;25.08;3.63;;;;;;;39.55;19.77;98665.41;5071896;28;20027;-49
2022/07/26 11:16:45;;;;;;;11.30;2.78;;;;;;;39.77;19.30;98664.59;5072187;28;20021;-50
2022/07/26 11:19:13;;;;;;;11.48;2.15;;;;;;;39.86;18.67;98659.44;5053893;28;20036;-50
2022/07/26 11:21:40;;;;;;;9.05;2.17;;;;;;;39.67;18.70;98663.44;5071894;28;20031;-51
2022/07/26 11:24:07;;;;;;;35.42;4.63;;;;;;;39.66;19.16;98656.34;5071915;28;20025;-48
2022/07/26 11:26:42;;;;;;;11.95;2.55;;;;;;;39.28;19.05;98662.31;5071679;28;20066;-50
2022/07/26 11:29:09;;;;;;;8.55;1.55;;;;;;;38.98;19.53;98659.97;5072035;28;20405;-50
2022/07/26 11:31:41;;;;;;;10.20;1.90;;;;;;;39.05;19.29;98648.19;5053855;28;20044;-50
2022/07/26 11:34:15;;;;;;;9.25;1.80;;;;;;;39.22;19.02;98643.84;5071655;28;20513;-49